sensor_id;sensor_type;location;lat;lon;timestamp;temperature;humidity
680;DHT22;322;48.846;9.230;2023-04-01T00:00:51;8.60;87.80
680;DHT22;322;48.846;9.230;2023-04-01T00:03:18;8.60;88.20
680;DHT22;322;48.846;9.230;2023-04-01T00:05:46;8.60;87.70
680;DHT22;322;48.846;9.230;2023-04-01T00:08:13;8.60;87.70
680;DHT22;322;48.846;9.230;2023-04-01T00:10:40;8.70;87.60
680;DHT22;322;48.846;9.230;2023-04-01T00:13:07;8.70;87.40
680;DHT22;322;48.846;9.230;2023-04-01T00:15:34;8.70;87.40
680;DHT22;322;48.846;9.230;2023-04-01T00:18:03;8.70;87.80
680;DHT22;322;48.846;9.230;2023-04-01T00:20:30;8.70;87.40
680;DHT22;322;48.846;9.230;2023-04-01T00:22:56;8.80;87.40
680;DHT22;322;48.846;9.230;2023-04-01T00:25:23;8.90;86.50
680;DHT22;322;48.846;9.230;2023-04-01T00:27:50;8.90;86.50
680;DHT22;322;48.846;9.230;2023-04-01T00:30:17;9.00;86.20
680;DHT22;322;48.846;9.230;2023-04-01T00:32:44;9.00;86.00
680;DHT22;322;48.846;9.230;2023-04-01T00:35:12;9.10;85.20
680;DHT22;322;48.846;9.230;2023-04-01T00:37:39;9.00;85.70
680;DHT22;322;48.846;9.230;2023-04-01T00:40:08;9.00;86.40
680;DHT22;322;48.846;9.230;2023-04-01T00:42:37;9.00;86.40
680;DHT22;322;48.846;9.230;2023-04-01T00:45:26;8.90;86.10
680;DHT22;322;48.846;9.230;2023-04-01T00:47:53;9.00;86.40
680;DHT22;322;48.846;9.230;2023-04-01T00:50:24;8.90;86.00
680;DHT22;322;48.846;9.230;2023-04-01T00:52:52;9.00;86.70
680;DHT22;322;48.846;9.230;2023-04-01T00:55:20;9.00;86.60
680;DHT22;322;48.846;9.230;2023-04-01T00:57:49;9.10;85.50
680;DHT22;322;48.846;9.230;2023-04-01T01:00:17;9.20;85.80
680;DHT22;322;48.846;9.230;2023-04-01T01:02:45;9.20;85.40
680;DHT22;322;48.846;9.230;2023-04-01T01:05:14;9.30;85.30
680;DHT22;322;48.846;9.230;2023-04-01T01:07:49;9.20;85.00
680;DHT22;322;48.846;9.230;2023-04-01T01:10:24;9.20;85.30
680;DHT22;322;48.846;9.230;2023-04-01T01:12:57;9.30;86.00
680;DHT22;322;48.846;9.230;2023-04-01T01:15:26;9.20;85.70
680;DHT22;322;48.846;9.230;2023-04-01T01:17:59;9.20;86.60
680;DHT22;322;48.846;9.230;2023-04-01T01:20:57;9.10;87.10
680;DHT22;322;48.846;9.230;2023-04-01T01:23:54;9.10;86.50
680;DHT22;322;48.846;9.230;2023-04-01T01:26:37;9.10;87.50
680;DHT22;322;48.846;9.230;2023-04-01T01:29:16;9.10;87.60
680;DHT22;322;48.846;9.230;2023-04-01T01:31:53;9.10;87.40
680;DHT22;322;48.846;9.230;2023-04-01T01:34:23;9.20;88.20
680;DHT22;322;48.846;9.230;2023-04-01T01:37:01;9.10;87.60
680;DHT22;322;48.846;9.230;2023-04-01T01:39:31;9.10;88.20
680;DHT22;322;48.846;9.230;2023-04-01T01:42:02;9.10;88.80
680;DHT22;322;48.846;9.230;2023-04-01T01:44:31;9.10;89.10
680;DHT22;322;48.846;9.230;2023-04-01T01:46:59;9.10;88.90
680;DHT22;322;48.846;9.230;2023-04-01T01:49:27;9.10;88.60
680;DHT22;322;48.846;9.230;2023-04-01T01:51:55;9.10;89.60
680;DHT22;322;48.846;9.230;2023-04-01T01:54:24;9.00;90.50
680;DHT22;322;48.846;9.230;2023-04-01T01:56:55;8.90;91.10
680;DHT22;322;48.846;9.230;2023-04-01T01:59:24;8.80;91.30
680;DHT22;322;48.846;9.230;2023-04-01T02:01:55;8.70;91.70
680;DHT22;322;48.846;9.230;2023-04-01T02:04:23;8.70;92.10
680;DHT22;322;48.846;9.230;2023-04-01T02:06:53;8.60;91.80
680;DHT22;322;48.846;9.230;2023-04-01T02:09:23;8.60;92.10
680;DHT22;322;48.846;9.230;2023-04-01T02:11:52;8.50;92.10
680;DHT22;322;48.846;9.230;2023-04-01T02:14:23;8.60;92.00
680;DHT22;322;48.846;9.230;2023-04-01T02:16:55;8.60;92.20
680;DHT22;322;48.846;9.230;2023-04-01T02:19:25;8.60;92.20
680;DHT22;322;48.846;9.230;2023-04-01T02:21:57;8.50;92.30
680;DHT22;322;48.846;9.230;2023-04-01T02:24:27;8.50;92.40
680;DHT22;322;48.846;9.230;2023-04-01T02:26:54;8.50;91.90
680;DHT22;322;48.846;9.230;2023-04-01T02:29:23;8.50;92.40
680;DHT22;322;48.846;9.230;2023-04-01T02:31:52;8.50;92.50
680;DHT22;322;48.846;9.230;2023-04-01T02:34:20;8.50;92.60
680;DHT22;322;48.846;9.230;2023-04-01T02:36:48;8.50;92.50
680;DHT22;322;48.846;9.230;2023-04-01T02:39:16;8.50;92.70
680;DHT22;322;48.846;9.230;2023-04-01T02:41:45;8.40;92.30
680;DHT22;322;48.846;9.230;2023-04-01T02:44:15;8.30;93.20
680;DHT22;322;48.846;9.230;2023-04-01T02:46:42;8.30;92.90
680;DHT22;322;48.846;9.230;2023-04-01T02:49:09;8.20;92.80
680;DHT22;322;48.846;9.230;2023-04-01T02:51:35;8.30;92.90
680;DHT22;322;48.846;9.230;2023-04-01T02:54:02;8.30;92.70
680;DHT22;322;48.846;9.230;2023-04-01T02:56:29;8.30;92.50
680;DHT22;322;48.846;9.230;2023-04-01T02:58:57;8.30;92.30
680;DHT22;322;48.846;9.230;2023-04-01T03:01:24;8.20;92.20
680;DHT22;322;48.846;9.230;2023-04-01T03:03:51;8.20;92.00
680;DHT22;322;48.846;9.230;2023-04-01T03:06:18;8.20;91.80
680;DHT22;322;48.846;9.230;2023-04-01T03:08:45;8.30;91.10
680;DHT22;322;48.846;9.230;2023-04-01T03:11:12;8.30;91.10
680;DHT22;322;48.846;9.230;2023-04-01T03:13:39;8.30;91.20
680;DHT22;322;48.846;9.230;2023-04-01T03:16:07;8.30;90.90
680;DHT22;322;48.846;9.230;2023-04-01T03:18:34;8.30;90.90
680;DHT22;322;48.846;9.230;2023-04-01T03:21:15;8.30;91.10
680;DHT22;322;48.846;9.230;2023-04-01T03:23:42;8.30;91.20
680;DHT22;322;48.846;9.230;2023-04-01T03:26:09;8.30;91.00
680;DHT22;322;48.846;9.230;2023-04-01T03:28:36;8.30;91.30
680;DHT22;322;48.846;9.230;2023-04-01T03:31:03;8.30;91.30
680;DHT22;322;48.846;9.230;2023-04-01T03:33:31;8.30;90.90
680;DHT22;322;48.846;9.230;2023-04-01T03:35:58;8.30;90.90
680;DHT22;322;48.846;9.230;2023-04-01T03:38:26;8.30;90.60
680;DHT22;322;48.846;9.230;2023-04-01T03:40:52;8.20;90.80
680;DHT22;322;48.846;9.230;2023-04-01T03:43:19;8.10;90.70
680;DHT22;322;48.846;9.230;2023-04-01T03:45:48;8.10;90.90
680;DHT22;322;48.846;9.230;2023-04-01T03:48:16;8.00;91.00
680;DHT22;322;48.846;9.230;2023-04-01T03:50:44;8.10;90.90
680;DHT22;322;48.846;9.230;2023-04-01T03:53:11;8.10;90.70
680;DHT22;322;48.846;9.230;2023-04-01T03:55:39;8.00;90.70
680;DHT22;322;48.846;9.230;2023-04-01T03:58:07;8.00;90.70
680;DHT22;322;48.846;9.230;2023-04-01T04:00:34;8.00;90.60
680;DHT22;322;48.846;9.230;2023-04-01T04:03:01;7.90;90.50
680;DHT22;322;48.846;9.230;2023-04-01T04:05:28;7.90;90.40
680;DHT22;322;48.846;9.230;2023-04-01T04:07:56;7.80;90.90
680;DHT22;322;48.846;9.230;2023-04-01T04:10:24;7.80;90.40
680;DHT22;322;48.846;9.230;2023-04-01T04:12:51;7.80;90.30
680;DHT22;322;48.846;9.230;2023-04-01T04:15:18;7.90;89.70
680;DHT22;322;48.846;9.230;2023-04-01T04:17:46;7.90;89.90
680;DHT22;322;48.846;9.230;2023-04-01T04:20:13;8.00;88.80
680;DHT22;322;48.846;9.230;2023-04-01T04:22:40;8.00;88.70
680;DHT22;322;48.846;9.230;2023-04-01T04:25:09;8.00;88.80
680;DHT22;322;48.846;9.230;2023-04-01T04:27:36;8.10;89.20
680;DHT22;322;48.846;9.230;2023-04-01T04:30:03;8.20;88.20
680;DHT22;322;48.846;9.230;2023-04-01T04:32:31;8.10;87.50
680;DHT22;322;48.846;9.230;2023-04-01T04:34:58;8.10;87.60
680;DHT22;322;48.846;9.230;2023-04-01T04:37:24;8.10;87.50
680;DHT22;322;48.846;9.230;2023-04-01T04:39:52;8.00;87.40
680;DHT22;322;48.846;9.230;2023-04-01T04:42:20;8.00;87.40
680;DHT22;322;48.846;9.230;2023-04-01T04:44:47;7.90;88.40
680;DHT22;322;48.846;9.230;2023-04-01T04:47:13;7.80;88.90
680;DHT22;322;48.846;9.230;2023-04-01T04:49:40;7.80;88.90
680;DHT22;322;48.846;9.230;2023-04-01T04:52:07;7.80;89.20
680;DHT22;322;48.846;9.230;2023-04-01T04:54:34;7.90;88.90
680;DHT22;322;48.846;9.230;2023-04-01T04:57:00;7.90;88.20
680;DHT22;322;48.846;9.230;2023-04-01T04:59:29;7.90;88.70
680;DHT22;322;48.846;9.230;2023-04-01T05:01:56;7.90;88.30
680;DHT22;322;48.846;9.230;2023-04-01T05:04:23;7.90;88.00
680;DHT22;322;48.846;9.230;2023-04-01T05:06:50;7.90;88.00
680;DHT22;322;48.846;9.230;2023-04-01T05:09:17;7.90;87.80
680;DHT22;322;48.846;9.230;2023-04-01T05:11:44;7.90;87.80
680;DHT22;322;48.846;9.230;2023-04-01T05:14:14;7.90;89.00
680;DHT22;322;48.846;9.230;2023-04-01T05:16:42;7.80;88.70
680;DHT22;322;48.846;9.230;2023-04-01T05:19:09;7.90;89.30
680;DHT22;322;48.846;9.230;2023-04-01T05:21:36;7.90;88.50
680;DHT22;322;48.846;9.230;2023-04-01T05:24:03;7.90;88.50
680;DHT22;322;48.846;9.230;2023-04-01T05:26:33;7.90;88.40
680;DHT22;322;48.846;9.230;2023-04-01T05:29:00;7.90;88.70
680;DHT22;322;48.846;9.230;2023-04-01T05:31:27;7.80;88.90
680;DHT22;322;48.846;9.230;2023-04-01T05:33:55;7.80;89.20
680;DHT22;322;48.846;9.230;2023-04-01T05:36:22;7.90;89.10
680;DHT22;322;48.846;9.230;2023-04-01T05:38:49;8.00;89.30
680;DHT22;322;48.846;9.230;2023-04-01T05:41:16;8.20;88.20
680;DHT22;322;48.846;9.230;2023-04-01T05:43:43;8.20;89.00
680;DHT22;322;48.846;9.230;2023-04-01T05:46:10;8.40;87.80
680;DHT22;322;48.846;9.230;2023-04-01T05:48:36;8.40;88.40
680;DHT22;322;48.846;9.230;2023-04-01T05:51:05;8.40;87.60
680;DHT22;322;48.846;9.230;2023-04-01T05:53:31;8.50;87.10
680;DHT22;322;48.846;9.230;2023-04-01T05:56:02;8.60;87.20
680;DHT22;322;48.846;9.230;2023-04-01T05:58:29;8.70;87.50
680;DHT22;322;48.846;9.230;2023-04-01T06:01:00;8.70;86.00
680;DHT22;322;48.846;9.230;2023-04-01T06:03:27;8.70;86.10
680;DHT22;322;48.846;9.230;2023-04-01T06:05:54;8.80;85.80
680;DHT22;322;48.846;9.230;2023-04-01T06:08:22;8.80;85.30
680;DHT22;322;48.846;9.230;2023-04-01T06:10:58;8.90;84.80
680;DHT22;322;48.846;9.230;2023-04-01T06:13:39;9.00;84.40
680;DHT22;322;48.846;9.230;2023-04-01T06:16:18;9.10;83.30
680;DHT22;322;48.846;9.230;2023-04-01T06:18:54;9.30;81.90
680;DHT22;322;48.846;9.230;2023-04-01T06:21:44;9.40;79.90
680;DHT22;322;48.846;9.230;2023-04-01T06:24:28;9.50;79.20
680;DHT22;322;48.846;9.230;2023-04-01T06:27:04;9.60;78.40
680;DHT22;322;48.846;9.230;2023-04-01T06:29:51;9.60;78.50
680;DHT22;322;48.846;9.230;2023-04-01T06:32:48;9.70;77.00
680;DHT22;322;48.846;9.230;2023-04-01T06:35:31;9.80;78.50
680;DHT22;322;48.846;9.230;2023-04-01T06:38:15;10.00;74.60
680;DHT22;322;48.846;9.230;2023-04-01T06:43:42;10.20;73.10
680;DHT22;322;48.846;9.230;2023-04-01T06:46:16;10.20;73.70
680;DHT22;322;48.846;9.230;2023-04-01T06:48:59;10.20;73.60
680;DHT22;322;48.846;9.230;2023-04-01T06:51:36;10.10;73.30
680;DHT22;322;48.846;9.230;2023-04-01T06:54:10;10.10;73.20
680;DHT22;322;48.846;9.230;2023-04-01T06:56:42;10.10;74.20
680;DHT22;322;48.846;9.230;2023-04-01T06:59:15;10.30;73.90
680;DHT22;322;48.846;9.230;2023-04-01T07:01:46;10.30;72.60
680;DHT22;322;48.846;9.230;2023-04-01T07:04:16;10.30;72.50
680;DHT22;322;48.846;9.230;2023-04-01T07:06:48;10.40;73.30
680;DHT22;322;48.846;9.230;2023-04-01T07:09:19;10.40;73.00
680;DHT22;322;48.846;9.230;2023-04-01T07:11:50;10.40;73.20
680;DHT22;322;48.846;9.230;2023-04-01T07:14:22;10.50;72.00
680;DHT22;322;48.846;9.230;2023-04-01T07:16:54;10.50;71.90
680;DHT22;322;48.846;9.230;2023-04-01T07:19:29;10.50;72.60
680;DHT22;322;48.846;9.230;2023-04-01T07:22:01;10.50;71.60
680;DHT22;322;48.846;9.230;2023-04-01T07:24:33;10.50;72.20
680;DHT22;322;48.846;9.230;2023-04-01T07:27:02;10.40;72.70
680;DHT22;322;48.846;9.230;2023-04-01T07:29:28;10.40;73.10
680;DHT22;322;48.846;9.230;2023-04-01T07:34:55;10.40;72.70
680;DHT22;322;48.846;9.230;2023-04-01T07:37:30;10.30;72.60
680;DHT22;322;48.846;9.230;2023-04-01T07:40:08;10.30;73.90
680;DHT22;322;48.846;9.230;2023-04-01T07:42:49;10.20;73.50
680;DHT22;322;48.846;9.230;2023-04-01T07:45:24;10.20;74.20
680;DHT22;322;48.846;9.230;2023-04-01T07:48:03;10.30;74.40
680;DHT22;322;48.846;9.230;2023-04-01T07:50:35;10.30;74.80
680;DHT22;322;48.846;9.230;2023-04-01T07:53:10;10.30;74.60
680;DHT22;322;48.846;9.230;2023-04-01T07:55:45;10.30;74.70
680;DHT22;322;48.846;9.230;2023-04-01T07:58:19;10.40;74.40
680;DHT22;322;48.846;9.230;2023-04-01T08:00:51;10.50;73.60
680;DHT22;322;48.846;9.230;2023-04-01T08:03:33;10.50;74.30
680;DHT22;322;48.846;9.230;2023-04-01T08:06:06;10.60;73.30
680;DHT22;322;48.846;9.230;2023-04-01T08:08:46;10.70;72.80
680;DHT22;322;48.846;9.230;2023-04-01T08:11:25;10.60;72.10
680;DHT22;322;48.846;9.230;2023-04-01T08:14:02;10.60;73.70
680;DHT22;322;48.846;9.230;2023-04-01T08:16:35;10.70;72.80
680;DHT22;322;48.846;9.230;2023-04-01T08:19:14;10.80;73.30
680;DHT22;322;48.846;9.230;2023-04-01T08:21:45;10.80;72.50
680;DHT22;322;48.846;9.230;2023-04-01T08:24:19;10.80;72.20
680;DHT22;322;48.846;9.230;2023-04-01T08:26:52;10.90;72.90
680;DHT22;322;48.846;9.230;2023-04-01T08:29:23;11.00;74.50
680;DHT22;322;48.846;9.230;2023-04-01T08:31:56;11.00;73.80
680;DHT22;322;48.846;9.230;2023-04-01T08:34:28;11.00;72.90
680;DHT22;322;48.846;9.230;2023-04-01T08:37:00;10.90;73.10
680;DHT22;322;48.846;9.230;2023-04-01T08:39:30;10.80;72.50
680;DHT22;322;48.846;9.230;2023-04-01T08:45:18;10.60;76.20
680;DHT22;322;48.846;9.230;2023-04-01T08:48:07;10.20;79.40
680;DHT22;322;48.846;9.230;2023-04-01T08:54:00;9.70;86.10
680;DHT22;322;48.846;9.230;2023-04-01T08:56:34;9.50;87.60
680;DHT22;322;48.846;9.230;2023-04-01T08:59:16;9.40;89.20
680;DHT22;322;48.846;9.230;2023-04-01T09:02:00;9.40;87.70
680;DHT22;322;48.846;9.230;2023-04-01T09:04:38;9.40;89.20
680;DHT22;322;48.846;9.230;2023-04-01T09:07:24;9.30;88.60
680;DHT22;322;48.846;9.230;2023-04-01T09:10:21;9.30;89.60
680;DHT22;322;48.846;9.230;2023-04-01T09:13:04;9.30;88.60
680;DHT22;322;48.846;9.230;2023-04-01T09:15:54;9.40;89.30
680;DHT22;322;48.846;9.230;2023-04-01T09:18:47;9.50;87.30
680;DHT22;322;48.846;9.230;2023-04-01T09:21:36;9.60;86.50
680;DHT22;322;48.846;9.230;2023-04-01T09:27:15;10.00;83.70
680;DHT22;322;48.846;9.230;2023-04-01T09:33:17;10.40;80.70
680;DHT22;322;48.846;9.230;2023-04-01T09:35:59;10.80;79.80
680;DHT22;322;48.846;9.230;2023-04-01T09:38:30;11.00;77.80
680;DHT22;322;48.846;9.230;2023-04-01T09:41:10;11.20;77.20
680;DHT22;322;48.846;9.230;2023-04-01T09:43:58;11.10;76.00
680;DHT22;322;48.846;9.230;2023-04-01T09:46:36;10.90;73.60
680;DHT22;322;48.846;9.230;2023-04-01T09:49:23;10.80;75.60
680;DHT22;322;48.846;9.230;2023-04-01T09:52:07;10.70;76.20
680;DHT22;322;48.846;9.230;2023-04-01T09:54:49;10.70;76.50
680;DHT22;322;48.846;9.230;2023-04-01T10:00:49;10.70;75.90
680;DHT22;322;48.846;9.230;2023-04-01T10:03:48;10.70;75.80
680;DHT22;322;48.846;9.230;2023-04-01T10:06:59;10.70;75.20
680;DHT22;322;48.846;9.230;2023-04-01T10:12:59;10.80;73.00
680;DHT22;322;48.846;9.230;2023-04-01T10:15:45;10.90;72.10
680;DHT22;322;48.846;9.230;2023-04-01T10:18:51;10.90;72.50
680;DHT22;322;48.846;9.230;2023-04-01T10:30:59;11.20;69.60
680;DHT22;322;48.846;9.230;2023-04-01T10:33:56;11.20;68.50
680;DHT22;322;48.846;9.230;2023-04-01T10:36:49;11.20;68.70
680;DHT22;322;48.846;9.230;2023-04-01T10:39:34;11.20;68.20
680;DHT22;322;48.846;9.230;2023-04-01T10:48:57;11.10;69.10
680;DHT22;322;48.846;9.230;2023-04-01T10:52:03;10.90;72.30
680;DHT22;322;48.846;9.230;2023-04-01T10:54:49;10.80;71.30
680;DHT22;322;48.846;9.230;2023-04-01T10:57:42;10.80;70.50
680;DHT22;322;48.846;9.230;2023-04-01T11:00:23;10.90;71.00
680;DHT22;322;48.846;9.230;2023-04-01T11:06:19;11.10;69.30
680;DHT22;322;48.846;9.230;2023-04-01T11:12:33;11.50;68.70
680;DHT22;322;48.846;9.230;2023-04-01T11:18:39;11.70;67.90
680;DHT22;322;48.846;9.230;2023-04-01T11:21:45;12.00;66.00
680;DHT22;322;48.846;9.230;2023-04-01T11:24:47;11.90;63.70
680;DHT22;322;48.846;9.230;2023-04-01T11:27:29;11.80;64.90
680;DHT22;322;48.846;9.230;2023-04-01T11:30:16;11.80;64.20
680;DHT22;322;48.846;9.230;2023-04-01T11:32:54;12.00;64.90
680;DHT22;322;48.846;9.230;2023-04-01T11:35:42;12.20;64.20
680;DHT22;322;48.846;9.230;2023-04-01T11:38:23;12.20;62.70
680;DHT22;322;48.846;9.230;2023-04-01T11:40:56;12.40;62.70
680;DHT22;322;48.846;9.230;2023-04-01T11:43:33;12.40;62.50
680;DHT22;322;48.846;9.230;2023-04-01T11:46:10;13.00;61.30
680;DHT22;322;48.846;9.230;2023-04-01T11:48:44;13.00;59.30
680;DHT22;322;48.846;9.230;2023-04-01T11:51:34;13.00;59.20
680;DHT22;322;48.846;9.230;2023-04-01T11:54:10;13.00;61.30
680;DHT22;322;48.846;9.230;2023-04-01T11:56:57;13.00;60.60
680;DHT22;322;48.846;9.230;2023-04-01T11:59:46;12.90;59.20
680;DHT22;322;48.846;9.230;2023-04-01T12:02:27;12.70;61.50
680;DHT22;322;48.846;9.230;2023-04-01T12:05:13;12.50;62.40
680;DHT22;322;48.846;9.230;2023-04-01T12:08:01;12.10;64.60
680;DHT22;322;48.846;9.230;2023-04-01T12:10:39;11.70;64.30
680;DHT22;322;48.846;9.230;2023-04-01T12:13:15;11.60;66.50
680;DHT22;322;48.846;9.230;2023-04-01T12:15:56;11.70;66.70
680;DHT22;322;48.846;9.230;2023-04-01T12:18:34;11.80;67.20
680;DHT22;322;48.846;9.230;2023-04-01T12:21:13;11.80;66.00
680;DHT22;322;48.846;9.230;2023-04-01T12:23:56;11.80;66.20
680;DHT22;322;48.846;9.230;2023-04-01T12:26:58;11.90;67.30
680;DHT22;322;48.846;9.230;2023-04-01T12:32:31;12.10;67.30
680;DHT22;322;48.846;9.230;2023-04-01T12:35:18;12.20;68.90
680;DHT22;322;48.846;9.230;2023-04-01T12:37:54;12.10;67.70
680;DHT22;322;48.846;9.230;2023-04-01T12:40:36;12.00;67.60
680;DHT22;322;48.846;9.230;2023-04-01T12:43:17;12.00;65.40
680;DHT22;322;48.846;9.230;2023-04-01T12:45:55;12.10;65.10
680;DHT22;322;48.846;9.230;2023-04-01T12:48:57;12.30;63.80
680;DHT22;322;48.846;9.230;2023-04-01T12:52:07;12.10;61.30
680;DHT22;322;48.846;9.230;2023-04-01T12:55:03;12.10;63.20
680;DHT22;322;48.846;9.230;2023-04-01T13:00:54;12.20;60.80
680;DHT22;322;48.846;9.230;2023-04-01T13:03:44;12.10;61.00
680;DHT22;322;48.846;9.230;2023-04-01T13:06:24;12.00;61.50
680;DHT22;322;48.846;9.230;2023-04-01T13:09:12;11.90;61.90
680;DHT22;322;48.846;9.230;2023-04-01T13:11:51;12.00;62.50
680;DHT22;322;48.846;9.230;2023-04-01T13:14:44;12.20;63.40
680;DHT22;322;48.846;9.230;2023-04-01T13:17:19;12.20;62.90
680;DHT22;322;48.846;9.230;2023-04-01T13:19:53;12.10;62.60
680;DHT22;322;48.846;9.230;2023-04-01T13:22:29;12.10;63.80
680;DHT22;322;48.846;9.230;2023-04-01T13:25:01;12.10;62.80
680;DHT22;322;48.846;9.230;2023-04-01T13:27:34;11.80;63.20
680;DHT22;322;48.846;9.230;2023-04-01T13:30:18;11.70;64.70
680;DHT22;322;48.846;9.230;2023-04-01T13:32:49;11.80;64.30
680;DHT22;322;48.846;9.230;2023-04-01T13:35:26;11.90;64.70
680;DHT22;322;48.846;9.230;2023-04-01T13:40:52;12.40;63.60
680;DHT22;322;48.846;9.230;2023-04-01T13:43:25;12.30;63.50
680;DHT22;322;48.846;9.230;2023-04-01T13:46:17;12.40;64.20
680;DHT22;322;48.846;9.230;2023-04-01T13:49:13;12.20;61.80
680;DHT22;322;48.846;9.230;2023-04-01T13:52:21;12.00;62.10
680;DHT22;322;48.846;9.230;2023-04-01T13:55:20;12.00;62.50
680;DHT22;322;48.846;9.230;2023-04-01T13:58:10;12.10;64.00
680;DHT22;322;48.846;9.230;2023-04-01T14:00:51;12.50;63.70
680;DHT22;322;48.846;9.230;2023-04-01T14:03:42;12.70;63.30
680;DHT22;322;48.846;9.230;2023-04-01T14:06:28;12.30;63.00
680;DHT22;322;48.846;9.230;2023-04-01T14:09:20;11.90;66.70
680;DHT22;322;48.846;9.230;2023-04-01T14:11:59;11.70;68.80
680;DHT22;322;48.846;9.230;2023-04-01T14:14:40;11.70;67.90
680;DHT22;322;48.846;9.230;2023-04-01T14:17:30;11.80;66.80
680;DHT22;322;48.846;9.230;2023-04-01T14:20:29;12.00;64.90
680;DHT22;322;48.846;9.230;2023-04-01T14:23:17;12.00;64.40
680;DHT22;322;48.846;9.230;2023-04-01T14:26:17;11.80;66.30
680;DHT22;322;48.846;9.230;2023-04-01T14:28:55;11.80;66.90
680;DHT22;322;48.846;9.230;2023-04-01T14:31:37;11.80;67.90
680;DHT22;322;48.846;9.230;2023-04-01T14:34:21;11.70;68.30
680;DHT22;322;48.846;9.230;2023-04-01T14:37:01;11.50;70.60
680;DHT22;322;48.846;9.230;2023-04-01T14:39:43;11.20;72.80
680;DHT22;322;48.846;9.230;2023-04-01T14:42:29;10.90;76.20
680;DHT22;322;48.846;9.230;2023-04-01T14:45:12;10.60;76.60
680;DHT22;322;48.846;9.230;2023-04-01T14:47:50;10.50;78.00
680;DHT22;322;48.846;9.230;2023-04-01T14:50:21;10.50;79.10
680;DHT22;322;48.846;9.230;2023-04-01T14:52:57;10.50;78.80
680;DHT22;322;48.846;9.230;2023-04-01T14:55:31;10.50;77.20
680;DHT22;322;48.846;9.230;2023-04-01T14:58:04;10.50;77.50
680;DHT22;322;48.846;9.230;2023-04-01T15:00:52;10.50;78.70
680;DHT22;322;48.846;9.230;2023-04-01T15:03:29;10.60;76.90
680;DHT22;322;48.846;9.230;2023-04-01T15:06:10;10.60;74.80
680;DHT22;322;48.846;9.230;2023-04-01T15:08:49;10.60;74.40
680;DHT22;322;48.846;9.230;2023-04-01T15:11:37;10.70;73.50
680;DHT22;322;48.846;9.230;2023-04-01T15:14:31;11.00;73.50
680;DHT22;322;48.846;9.230;2023-04-01T15:17:29;11.20;72.90
680;DHT22;322;48.846;9.230;2023-04-01T15:20:10;11.40;70.70
680;DHT22;322;48.846;9.230;2023-04-01T15:22:53;11.60;71.40
680;DHT22;322;48.846;9.230;2023-04-01T15:25:34;11.60;70.20
680;DHT22;322;48.846;9.230;2023-04-01T15:28:10;11.60;69.30
680;DHT22;322;48.846;9.230;2023-04-01T15:30:47;11.50;69.80
680;DHT22;322;48.846;9.230;2023-04-01T15:33:27;11.50;69.50
680;DHT22;322;48.846;9.230;2023-04-01T15:36:05;11.50;69.60
680;DHT22;322;48.846;9.230;2023-04-01T15:38:40;11.50;69.40
680;DHT22;322;48.846;9.230;2023-04-01T15:41:14;11.50;69.90
680;DHT22;322;48.846;9.230;2023-04-01T15:43:44;11.60;69.30
680;DHT22;322;48.846;9.230;2023-04-01T15:46:43;11.50;69.00
680;DHT22;322;48.846;9.230;2023-04-01T15:49:28;11.50;70.20
680;DHT22;322;48.846;9.230;2023-04-01T15:52:07;11.50;70.00
680;DHT22;322;48.846;9.230;2023-04-01T15:55:04;11.50;69.30
680;DHT22;322;48.846;9.230;2023-04-01T15:57:47;11.50;69.80
680;DHT22;322;48.846;9.230;2023-04-01T16:00:26;11.40;69.40
680;DHT22;322;48.846;9.230;2023-04-01T16:03:14;11.40;69.20
680;DHT22;322;48.846;9.230;2023-04-01T16:05:55;11.40;69.50
680;DHT22;322;48.846;9.230;2023-04-01T16:08:45;11.30;69.30
680;DHT22;322;48.846;9.230;2023-04-01T16:11:21;11.40;69.70
680;DHT22;322;48.846;9.230;2023-04-01T16:13:59;11.30;68.00
680;DHT22;322;48.846;9.230;2023-04-01T16:16:38;11.20;68.40
680;DHT22;322;48.846;9.230;2023-04-01T16:19:27;11.20;68.70
680;DHT22;322;48.846;9.230;2023-04-01T16:22:01;11.30;68.60
680;DHT22;322;48.846;9.230;2023-04-01T16:24:39;11.20;67.90
680;DHT22;322;48.846;9.230;2023-04-01T16:27:12;11.20;69.30
680;DHT22;322;48.846;9.230;2023-04-01T16:29:45;11.20;66.80
680;DHT22;322;48.846;9.230;2023-04-01T16:32:18;11.20;66.80
680;DHT22;322;48.846;9.230;2023-04-01T16:34:57;11.20;66.70
680;DHT22;322;48.846;9.230;2023-04-01T16:37:34;11.20;66.30
680;DHT22;322;48.846;9.230;2023-04-01T16:40:15;11.10;66.20
680;DHT22;322;48.846;9.230;2023-04-01T16:42:51;11.10;66.70
680;DHT22;322;48.846;9.230;2023-04-01T16:45:30;11.00;67.50
680;DHT22;322;48.846;9.230;2023-04-01T16:48:05;11.10;67.40
680;DHT22;322;48.846;9.230;2023-04-01T16:50:44;11.00;68.20
680;DHT22;322;48.846;9.230;2023-04-01T16:53:18;10.80;70.50
680;DHT22;322;48.846;9.230;2023-04-01T16:55:50;10.70;71.00
680;DHT22;322;48.846;9.230;2023-04-01T16:58:23;10.70;71.70
680;DHT22;322;48.846;9.230;2023-04-01T17:00:57;10.70;71.10
680;DHT22;322;48.846;9.230;2023-04-01T17:03:28;10.70;71.30
680;DHT22;322;48.846;9.230;2023-04-01T17:06:05;10.80;69.90
680;DHT22;322;48.846;9.230;2023-04-01T17:08:47;10.80;70.40
680;DHT22;322;48.846;9.230;2023-04-01T17:11:19;10.80;70.10
680;DHT22;322;48.846;9.230;2023-04-01T17:13:57;10.80;69.70
680;DHT22;322;48.846;9.230;2023-04-01T17:19:32;10.90;70.20
680;DHT22;322;48.846;9.230;2023-04-01T17:22:07;10.80;70.40
680;DHT22;322;48.846;9.230;2023-04-01T17:24:51;10.90;70.70
680;DHT22;322;48.846;9.230;2023-04-01T17:27:31;10.90;70.10
680;DHT22;322;48.846;9.230;2023-04-01T17:30:21;10.90;71.30
680;DHT22;322;48.846;9.230;2023-04-01T17:32:59;10.80;71.00
680;DHT22;322;48.846;9.230;2023-04-01T17:35:33;10.80;71.40
680;DHT22;322;48.846;9.230;2023-04-01T17:38:13;10.90;70.70
680;DHT22;322;48.846;9.230;2023-04-01T17:40:53;10.80;71.00
680;DHT22;322;48.846;9.230;2023-04-01T17:43:32;10.80;71.10
680;DHT22;322;48.846;9.230;2023-04-01T17:46:04;10.90;70.70
680;DHT22;322;48.846;9.230;2023-04-01T17:48:41;10.90;70.70
680;DHT22;322;48.846;9.230;2023-04-01T17:51:19;10.90;70.80
680;DHT22;322;48.846;9.230;2023-04-01T17:53:57;10.90;70.90
680;DHT22;322;48.846;9.230;2023-04-01T17:56:45;10.90;71.30
680;DHT22;322;48.846;9.230;2023-04-01T17:59:21;10.90;70.90
680;DHT22;322;48.846;9.230;2023-04-01T18:01:57;10.90;71.20
680;DHT22;322;48.846;9.230;2023-04-01T18:04:50;10.80;72.70
680;DHT22;322;48.846;9.230;2023-04-01T18:07:41;10.60;76.50
680;DHT22;322;48.846;9.230;2023-04-01T18:10:25;10.40;78.90
680;DHT22;322;48.846;9.230;2023-04-01T18:13:14;10.10;81.10
680;DHT22;322;48.846;9.230;2023-04-01T18:15:52;9.90;85.20
680;DHT22;322;48.846;9.230;2023-04-01T18:18:35;9.80;84.60
680;DHT22;322;48.846;9.230;2023-04-01T18:21:09;9.70;85.60
680;DHT22;322;48.846;9.230;2023-04-01T18:23:43;9.70;86.40
680;DHT22;322;48.846;9.230;2023-04-01T18:26:13;9.70;85.30
680;DHT22;322;48.846;9.230;2023-04-01T18:28:51;9.70;84.90
680;DHT22;322;48.846;9.230;2023-04-01T18:31:23;9.70;84.50
680;DHT22;322;48.846;9.230;2023-04-01T18:33:59;9.70;84.20
680;DHT22;322;48.846;9.230;2023-04-01T18:36:38;9.70;84.10
680;DHT22;322;48.846;9.230;2023-04-01T18:39:11;9.70;84.80
680;DHT22;322;48.846;9.230;2023-04-01T18:41:50;9.70;85.60
680;DHT22;322;48.846;9.230;2023-04-01T18:44:31;9.70;86.10
680;DHT22;322;48.846;9.230;2023-04-01T18:47:14;9.60;86.70